Time;durP1;ratioP1;P1;durP2;ratioP2;P2;SDS_P1;SDS_P2;PMS_P1;PMS_P2;Temp;Humidity;BMP_temperature;BMP_pressure;BME280_temperature;BME280_humidity;BME280_pressure;Samples;Min_cycle;Max_cycle;Signal;HPM_P1;HPM_P2
2024/02/06 00:02:02;;;;;;;;;;;;;;;;;;4964044;28;5082;-59
2024/02/06 00:04:27;;;;;;;;;;;;;;;;;;4967515;28;5208;-59
2024/02/06 00:06:53;;;;;;;;;;;;;;;;;;4969479;28;1110;-59
2024/02/06 00:09:20;;;;;;;;;;;;;;;;;;4950011;28;4552;-58
2024/02/06 00:11:45;;;;;;;;;;;;;;;;;;4953728;28;5058;-59
2024/02/06 00:14:10;;;;;;;;;;;;;;;;;;4959553;28;5230;-58
2024/02/06 00:16:38;;;;;;;;;;;;;;;;;;4963664;28;5129;-60
2024/02/06 00:19:05;;;;;;;;;;;;;;;;;;4968920;28;1351;-59
2024/02/06 00:21:31;;;;;;;;;;;;;;;;;;4950072;28;5066;-60
2024/02/06 00:23:56;;;;;;;;;;;;;;;;;;4956021;28;5090;-59
2024/02/06 00:26:21;;;;;;;;;;;;;;;;;;4966744;28;4528;-59
2024/02/06 00:28:47;;;;;;;;;;;;;;;;;;4962671;28;5393;-59
2024/02/06 00:31:12;;;;;;;;;;;;;;;;;;4965241;28;1142;-59
2024/02/06 00:33:37;;;;;;;;;;;;;;;;;;4963857;28;4619;-59
2024/02/06 00:36:03;;;;;;;;;;;;;;;;;;4958212;28;5037;-59
2024/02/06 00:38:28;;;;;;;;;;;;;;;;;;4959721;28;5261;-59
2024/02/06 00:40:53;;;;;;;;;;;;;;;;;;4961442;28;4461;-59
2024/02/06 00:43:18;;;;;;;;;;;;;;;;;;4962661;28;5162;-60
2024/02/06 00:45:44;;;;;;;;;;;;;;;;;;4956900;28;3806;-59
2024/02/06 00:48:09;;;;;;;;;;;;;;;;;;4962898;28;5145;-59
2024/02/06 00:50:34;;;;;;;;;;;;;;;;;;4965827;28;4587;-58
2024/02/06 00:52:59;;;;;;;;;;;;;;;;;;4963827;28;4566;-58
2024/02/06 00:55:25;;;;;;;;;;;;;;;;;;4964152;28;4885;-59
2024/02/06 00:57:50;;;;;;;;;;;;;;;;;;4959880;28;3481;-59
2024/02/06 01:00:15;;;;;;;;;;;;;;;;;;4966576;28;5127;-60
2024/02/06 01:02:41;;;;;;;;;;;;;;;;;;4943573;28;5110;-59
2024/02/06 01:05:06;;;;;;;;;;;;;;;;;;4963661;28;4847;-60
2024/02/06 01:07:31;;;;;;;;;;;;;;;;;;4964099;28;5093;-59
2024/02/06 01:09:57;;;;;;;;;;;;;;;;;;4963097;28;3396;-59
2024/02/06 01:12:22;;;;;;;;;;;;;;;;;;4964314;28;5178;-58
2024/02/06 01:14:47;;;;;;;;;;;;;;;;;;4965766;28;5137;-58
2024/02/06 01:17:13;;;;;;;;;;;;;;;;;;4960339;28;4572;-58
2024/02/06 01:19:38;;;;;;;;;;;;;;;;;;4960673;28;5106;-58
2024/02/06 01:22:03;;;;;;;;;;;;;;;;;;4969170;28;3333;-58
2024/02/06 01:24:28;;;;;;;;;;;;;;;;;;4967366;28;5185;-59
2024/02/06 01:26:53;;;;;;;;;;;;;;;;;;4964296;28;4732;-59
2024/02/06 01:29:19;;;;;;;;;;;;;;;;;;4949424;28;5165;-58
2024/02/06 01:31:46;;;;;;;;;;;;;;;;;;4967166;28;5118;-58
2024/02/06 01:34:11;;;;;;;;;;;;;;;;;;4963926;28;3461;-59
2024/02/06 01:36:36;;;;;;;;;;;;;;;;;;4959927;28;5219;-58
2024/02/06 01:39:02;;;;;;;;;;;;;;;;;;4966110;28;5339;-59
2024/02/06 01:41:27;;;;;;;;;;;;;;;;;;4963319;28;4990;-59
2024/02/06 01:43:53;;;;;;;;;;;;;;;;;;4965192;28;5073;-59
2024/02/06 01:46:19;;;;;;;;;;;;;;;;;;4961772;28;4841;-59
2024/02/06 01:48:44;;;;;;;;;;;;;;;;;;4968566;28;3387;-58
2024/02/06 01:51:10;;;;;;;;;;;;;;;;;;4951215;28;5029;-59
2024/02/06 01:53:35;;;;;;;;;;;;;;;;;;4958287;28;5181;-59
2024/02/06 01:56:00;;;;;;;;;;;;;;;;;;4950522;28;4772;-58
2024/02/06 01:58:26;;;;;;;;;;;;;;;;;;4967207;28;4995;-58
2024/02/06 02:00:51;;;;;;;;;;;;;;;;;;4963254;28;3463;-58
2024/02/06 02:03:16;;;;;;;;;;;;;;;;;;4963609;28;5238;-58
2024/02/06 02:05:42;;;;;;;;;;;;;;;;;;4947639;28;5210;-59
2024/02/06 02:08:08;;;;;;;;;;;;;;;;;;4960835;28;5137;-59
2024/02/06 02:10:33;;;;;;;;;;;;;;;;;;4963573;28;5222;-59
2024/02/06 02:12:58;;;;;;;;;;;;;;;;;;4948086;28;3381;-58
2024/02/06 02:15:24;;;;;;;;;;;;;;;;;;4945545;28;5107;-59
2024/02/06 02:17:50;;;;;;;;;;;;;;;;;;4959294;28;4752;-58
2024/02/06 02:20:15;;;;;;;;;;;;;;;;;;4957183;28;5229;-59
2024/02/06 02:22:41;;;;;;;;;;;;;;;;;;4969238;28;5015;-59
2024/02/06 02:25:06;;;;;;;;;;;;;;;;;;4966471;28;3408;-58
2024/02/06 02:27:31;;;;;;;;;;;;;;;;;;4946088;28;5082;-58
2024/02/06 02:29:57;;;;;;;;;;;;;;;;;;4966320;28;5185;-59
2024/02/06 02:32:22;;;;;;;;;;;;;;;;;;4967101;28;5185;-59
2024/02/06 02:34:47;;;;;;;;;;;;;;;;;;4963541;28;5177;-60
2024/02/06 02:37:13;;;;;;;;;;;;;;;;;;4957776;28;3400;-60
2024/02/06 02:39:38;;;;;;;;;;;;;;;;;;4966262;28;5000;-60
2024/02/06 02:42:04;;;;;;;;;;;;;;;;;;4968611;28;4994;-59
2024/02/06 02:44:29;;;;;;;;;;;;;;;;;;4964257;28;5157;-59
2024/02/06 02:46:54;;;;;;;;;;;;;;;;;;4965049;28;5448;-59
2024/02/06 02:49:20;;;;;;;;;;;;;;;;;;4959710;28;5084;-60
2024/02/06 02:51:45;;;;;;;;;;;;;;;;;;4965282;28;3907;-59
2024/02/06 02:54:11;;;;;;;;;;;;;;;;;;4962682;28;5193;-60
2024/02/06 02:56:36;;;;;;;;;;;;;;;;;;4949959;28;5221;-59
2024/02/06 02:59:01;;;;;;;;;;;;;;;;;;4966517;28;5176;-59
2024/02/06 03:01:27;;;;;;;;;;;;;;;;;;4966939;28;4857;-59
2024/02/06 03:03:52;;;;;;;;;;;;;;;;;;4968070;28;1166;-59
2024/02/06 03:06:20;;;;;;;;;;;;;;;;;;4955224;28;5117;-59
2024/02/06 03:08:45;;;;;;;;;;;;;;;;;;4965219;28;5066;-59
2024/02/06 03:11:11;;;;;;;;;;;;;;;;;;4960659;28;4543;-60
2024/02/06 03:13:39;;;;;;;;;;;;;;;;;;4964935;28;5002;-60
2024/02/06 03:16:04;;;;;;;;;;;;;;;;;;4964266;28;3368;-60
2024/02/06 03:18:29;;;;;;;;;;;;;;;;;;4963390;28;4718;-59
2024/02/06 03:20:55;;;;;;;;;;;;;;;;;;4967239;28;5243;-59
2024/02/06 03:23:22;;;;;;;;;;;;;;;;;;4965914;28;4774;-59
2024/02/06 03:25:47;;;;;;;;;;;;;;;;;;4949500;28;4623;-59
2024/02/06 03:28:13;;;;;;;;;;;;;;;;;;4962278;28;1195;-59
2024/02/06 03:30:38;;;;;;;;;;;;;;;;;;4964486;28;5450;-59
2024/02/06 03:33:04;;;;;;;;;;;;;;;;;;4962241;28;5095;-59
2024/02/06 03:35:29;;;;;;;;;;;;;;;;;;4962518;28;5049;-60
2024/02/06 03:37:54;;;;;;;;;;;;;;;;;;4949940;28;5124;-59
2024/02/06 03:40:19;;;;;;;;;;;;;;;;;;4961430;28;4804;-60
2024/02/06 03:42:45;;;;;;;;;;;;;;;;;;4962519;28;1108;-60
2024/02/06 03:45:10;;;;;;;;;;;;;;;;;;4959306;28;4997;-59
2024/02/06 03:47:35;;;;;;;;;;;;;;;;;;4964488;28;4594;-60
2024/02/06 03:50:01;;;;;;;;;;;;;;;;;;4963682;28;5062;-60
2024/02/06 03:52:26;;;;;;;;;;;;;;;;;;4963727;28;5329;-59
2024/02/06 03:54:51;;;;;;;;;;;;;;;;;;4963186;28;1043;-59
2024/02/06 03:57:17;;;;;;;;;;;;;;;;;;4963544;28;5400;-59
2024/02/06 03:59:43;;;;;;;;;;;;;;;;;;4966133;28;5103;-58
2024/02/06 04:02:08;;;;;;;;;;;;;;;;;;4965592;28;4589;-58
2024/02/06 04:04:33;;;;;;;;;;;;;;;;;;4967781;28;5372;-59
2024/02/06 04:06:58;;;;;;;;;;;;;;;;;;4966319;28;3416;-59
2024/02/06 04:09:24;;;;;;;;;;;;;;;;;;4958162;28;4495;-58
2024/02/06 04:11:49;;;;;;;;;;;;;;;;;;4962224;28;4943;-58
2024/02/06 04:14:15;;;;;;;;;;;;;;;;;;4963129;28;5116;-58
2024/02/06 04:16:40;;;;;;;;;;;;;;;;;;4941732;28;4782;-59
2024/02/06 04:19:05;;;;;;;;;;;;;;;;;;4967477;28;3353;-59
2024/02/06 04:21:31;;;;;;;;;;;;;;;;;;4962536;28;5274;-59
2024/02/06 04:23:56;;;;;;;;;;;;;;;;;;4946964;28;5103;-58
2024/02/06 04:26:22;;;;;;;;;;;;;;;;;;4966704;28;5253;-58
2024/02/06 04:28:47;;;;;;;;;;;;;;;;;;4964871;28;5161;-58
2024/02/06 04:31:12;;;;;;;;;;;;;;;;;;4962177;28;1241;-59
2024/02/06 04:33:39;;;;;;;;;;;;;;;;;;4962222;28;5084;-58
2024/02/06 04:36:04;;;;;;;;;;;;;;;;;;4964114;28;5014;-59
2024/02/06 04:38:29;;;;;;;;;;;;;;;;;;4964264;28;5088;-58
2024/02/06 04:40:55;;;;;;;;;;;;;;;;;;4960108;28;4581;-58
2024/02/06 04:43:22;;;;;;;;;;;;;;;;;;4951512;28;5611;-58
2024/02/06 04:45:47;;;;;;;;;;;;;;;;;;4968922;28;3531;-58
2024/02/06 04:48:12;;;;;;;;;;;;;;;;;;4960665;28;4756;-58
2024/02/06 04:50:38;;;;;;;;;;;;;;;;;;4965510;28;4557;-58
2024/02/06 04:53:04;;;;;;;;;;;;;;;;;;4965588;28;5151;-58
2024/02/06 04:55:32;;;;;;;;;;;;;;;;;;4962060;28;4974;-59
2024/02/06 04:57:58;;;;;;;;;;;;;;;;;;4963759;28;3317;-59
2024/02/06 05:00:23;;;;;;;;;;;;;;;;;;4962179;28;4994;-58
2024/02/06 05:02:48;;;;;;;;;;;;;;;;;;4966482;28;4664;-59
2024/02/06 05:05:14;;;;;;;;;;;;;;;;;;4952162;28;5190;-58
2024/02/06 05:07:39;;;;;;;;;;;;;;;;;;4966504;28;5216;-58
2024/02/06 05:10:04;;;;;;;;;;;;;;;;;;4967702;28;3391;-58
2024/02/06 05:12:30;;;;;;;;;;;;;;;;;;4970282;28;5147;-58
2024/02/06 05:14:55;;;;;;;;;;;;;;;;;;4969559;28;5065;-58
2024/02/06 05:17:20;;;;;;;;;;;;;;;;;;4968511;28;4661;-58
2024/02/06 05:19:46;;;;;;;;;;;;;;;;;;4961315;28;4651;-59
2024/02/06 05:22:11;;;;;;;;;;;;;;;;;;4963473;28;3370;-58
2024/02/06 05:24:37;;;;;;;;;;;;;;;;;;4965987;28;4843;-59
2024/02/06 05:27:03;;;;;;;;;;;;;;;;;;4966288;28;5066;-59
2024/02/06 05:29:29;;;;;;;;;;;;;;;;;;4971447;28;5052;-58
2024/02/06 05:31:55;;;;;;;;;;;;;;;;;;4971000;28;4748;-58
2024/02/06 05:34:20;;;;;;;;;;;;;;;;;;4969993;28;5104;-58
2024/02/06 05:36:45;;;;;;;;;;;;;;;;;;4963615;28;3314;-59
2024/02/06 05:39:11;;;;;;;;;;;;;;;;;;4970944;28;5134;-58
2024/02/06 05:41:36;;;;;;;;;;;;;;;;;;4969571;28;4706;-59
2024/02/06 05:44:01;;;;;;;;;;;;;;;;;;4965883;28;4907;-58
2024/02/06 05:46:27;;;;;;;;;;;;;;;;;;4970315;28;4677;-59
2024/02/06 05:48:52;;;;;;;;;;;;;;;;;;4957570;28;3414;-58
2024/02/06 05:51:18;;;;;;;;;;;;;;;;;;4962249;28;5240;-57
2024/02/06 05:53:44;;;;;;;;;;;;;;;;;;4961842;28;4653;-58
2024/02/06 05:56:09;;;;;;;;;;;;;;;;;;4967786;28;5169;-58
2024/02/06 05:58:37;;;;;;;;;;;;;;;;;;4966230;28;5313;-58
2024/02/06 06:01:04;;;;;;;;;;;;;;;;;;4965213;28;1054;-58
2024/02/06 06:03:29;;;;;;;;;;;;;;;;;;4961369;28;4994;-58
2024/02/06 06:05:55;;;;;;;;;;;;;;;;;;4969463;28;4507;-59
2024/02/06 06:08:20;;;;;;;;;;;;;;;;;;4960444;28;5060;-59
2024/02/06 06:10:45;;;;;;;;;;;;;;;;;;4964039;28;5119;-59
2024/02/06 06:13:11;;;;;;;;;;;;;;;;;;4967825;28;1918;-58
2024/02/06 06:15:36;;;;;;;;;;;;;;;;;;4968552;28;5013;-59
2024/02/06 06:18:01;;;;;;;;;;;;;;;;;;4962281;28;4673;-59
2024/02/06 06:20:27;;;;;;;;;;;;;;;;;;4965484;28;4547;-58
2024/02/06 06:22:53;;;;;;;;;;;;;;;;;;4959836;28;4705;-59
2024/02/06 06:25:18;;;;;;;;;;;;;;;;;;4961992;28;4951;-59
2024/02/06 06:27:43;;;;;;;;;;;;;;;;;;4958989;28;1209;-58
2024/02/06 06:30:09;;;;;;;;;;;;;;;;;;4964605;28;5241;-58
2024/02/06 06:32:34;;;;;;;;;;;;;;;;;;4961907;28;5120;-58
2024/02/06 06:35:00;;;;;;;;;;;;;;;;;;4962767;28;5034;-58
2024/02/06 06:37:25;;;;;;;;;;;;;;;;;;4960064;28;5246;-59
2024/02/06 06:39:51;;;;;;;;;;;;;;;;;;4970037;28;1310;-58
2024/02/06 06:42:16;;;;;;;;;;;;;;;;;;4962127;28;5179;-58
2024/02/06 06:44:41;;;;;;;;;;;;;;;;;;4960538;28;4919;-58
2024/02/06 06:47:08;;;;;;;;;;;;;;;;;;4964922;28;5094;-58
2024/02/06 06:49:33;;;;;;;;;;;;;;;;;;4955609;28;4922;-58
2024/02/06 06:51:58;;;;;;;;;;;;;;;;;;4947032;28;3288;-58
2024/02/06 06:54:24;;;;;;;;;;;;;;;;;;4961524;28;4533;-58
2024/02/06 06:56:49;;;;;;;;;;;;;;;;;;4945140;28;4635;-58
2024/02/06 06:59:14;;;;;;;;;;;;;;;;;;4956776;28;4878;-58
2024/02/06 07:01:39;;;;;;;;;;;;;;;;;;4964119;28;5151;-59
2024/02/06 07:04:05;;;;;;;;;;;;;;;;;;4966542;28;2206;-59
2024/02/06 07:06:31;;;;;;;;;;;;;;;;;;4961219;28;5027;-58
2024/02/06 07:08:57;;;;;;;;;;;;;;;;;;4948537;28;4704;-58
2024/02/06 07:11:22;;;;;;;;;;;;;;;;;;4959213;28;5251;-58
2024/02/06 07:13:47;;;;;;;;;;;;;;;;;;4961785;28;5053;-59
2024/02/06 07:16:13;;;;;;;;;;;;;;;;;;4967835;28;3349;-58
2024/02/06 07:18:38;;;;;;;;;;;;;;;;;;4963486;28;5149;-59
2024/02/06 07:21:03;;;;;;;;;;;;;;;;;;4962236;28;4557;-59
2024/02/06 07:23:29;;;;;;;;;;;;;;;;;;4963613;28;5254;-58
2024/02/06 07:25:54;;;;;;;;;;;;;;;;;;4966651;28;4713;-59
2024/02/06 07:28:19;;;;;;;;;;;;;;;;;;4961216;28;4624;-59
2024/02/06 07:30:44;;;;;;;;;;;;;;;;;;4962186;28;3454;-59
2024/02/06 07:33:10;;;;;;;;;;;;;;;;;;4966916;28;4483;-59
2024/02/06 07:35:35;;;;;;;;;;;;;;;;;;4964219;28;5075;-59
2024/02/06 07:38:01;;;;;;;;;;;;;;;;;;4966412;28;4509;-59
2024/02/06 07:40:27;;;;;;;;;;;;;;;;;;4958407;28;4887;-59
2024/02/06 07:42:52;;;;;;;;;;;;;;;;;;4964108;28;2553;-59
2024/02/06 07:45:18;;;;;;;;;;;;;;;;;;4946024;28;5143;-58
2024/02/06 07:47:43;;;;;;;;;;;;;;;;;;4961222;28;5512;-58
2024/02/06 07:50:09;;;;;;;;;;;;;;;;;;4955277;28;5210;-58
2024/02/06 07:52:34;;;;;;;;;;;;;;;;;;4962048;28;5369;-58
2024/02/06 07:55:00;;;;;;;;;;;;;;;;;;4966307;28;3409;-58
2024/02/06 07:57:25;;;;;;;;;;;;;;;;;;4960645;28;4489;-59
2024/02/06 07:59:50;;;;;;;;;;;;;;;;;;4959037;28;4676;-60
2024/02/06 08:02:16;;;;;;;;;;;;;;;;;;4964966;28;4567;-59
2024/02/06 08:04:43;;;;;;;;;;;;;;;;;;4968301;28;5344;-61
2024/02/06 08:07:08;;;;;;;;;;;;;;;;;;4968913;28;1107;-60
2024/02/06 08:09:33;;;;;;;;;;;;;;;;;;4940599;28;4995;-59
2024/02/06 08:11:59;;;;;;;;;;;;;;;;;;4968116;28;5089;-59
2024/02/06 08:14:24;;;;;;;;;;;;;;;;;;4967068;28;5342;-59
2024/02/06 08:16:50;;;;;;;;;;;;;;;;;;4965015;28;5129;-60
2024/02/06 08:19:15;;;;;;;;;;;;;;;;;;4969268;28;5242;-61
2024/02/06 08:21:40;;;;;;;;;;;;;;;;;;4957578;28;1642;-59
2024/02/06 08:24:06;;;;;;;;;;;;;;;;;;4970655;28;5154;-59
2024/02/06 08:26:31;;;;;;;;;;;;;;;;;;4952986;28;5138;-59
2024/02/06 08:28:56;;;;;;;;;;;;;;;;;;4963622;28;4804;-59
2024/02/06 08:31:22;;;;;;;;;;;;;;;;;;4951223;28;5113;-59
2024/02/06 08:33:49;;;;;;;;;;;;;;;;;;4974821;28;1964;-58
2024/02/06 08:36:15;;;;;;;;;;;;;;;;;;4945472;28;4466;-59
2024/02/06 08:38:40;;;;;;;;;;;;;;;;;;4967382;28;4795;-59
2024/02/06 08:41:05;;;;;;;;;;;;;;;;;;4968956;28;5108;-59
2024/02/06 08:43:31;;;;;;;;;;;;;;;;;;4964605;28;4600;-57
2024/02/06 08:45:57;;;;;;;;;;;;;;;;;;4973070;28;1497;-58
2024/02/06 08:48:22;;;;;;;;;;;;;;;;;;4957275;28;5179;-58
2024/02/06 08:50:49;;;;;;;;;;;;;;;;;;4972919;28;4560;-58
2024/02/06 08:53:15;;;;;;;;;;;;;;;;;;4964726;28;5030;-59
2024/02/06 08:55:40;;;;;;;;;;;;;;;;;;4971925;28;4544;-59
2024/02/06 08:58:05;;;;;;;;;;;;;;;;;;4973138;28;1143;-59
2024/02/06 09:00:31;;;;;;;;;;;;;;;;;;4966687;28;4679;-59
2024/02/06 09:02:56;;;;;;;;;;;;;;;;;;4973333;28;4881;-59
2024/02/06 09:05:21;;;;;;;;;;;;;;;;;;4954461;28;5127;-59
2024/02/06 09:07:46;;;;;;;;;;;;;;;;;;4973336;28;5085;-59
2024/02/06 09:10:12;;;;;;;;;;;;;;;;;;4969699;28;1186;-59
2024/02/06 09:12:37;;;;;;;;;;;;;;;;;;4973171;28;5274;-59
2024/02/06 09:15:03;;;;;;;;;;;;;;;;;;4967323;28;5038;-60
2024/02/06 09:17:28;;;;;;;;;;;;;;;;;;4973499;28;4549;-59
2024/02/06 09:19:53;;;;;;;;;;;;;;;;;;4965810;28;5917;-60
2024/02/06 09:22:19;;;;;;;;;;;;;;;;;;4968095;28;5210;-60
2024/02/06 09:24:44;;;;;;;;;;;;;;;;;;4967603;28;1325;-59
2024/02/06 09:27:10;;;;;;;;;;;;;;;;;;4969209;28;5021;-59
2024/02/06 09:29:35;;;;;;;;;;;;;;;;;;4963964;28;5145;-59
2024/02/06 09:32:00;;;;;;;;;;;;;;;;;;4971045;28;4916;-59
2024/02/06 09:34:25;;;;;;;;;;;;;;;;;;4965967;28;4863;-59
2024/02/06 09:36:51;;;;;;;;;;;;;;;;;;4969712;28;3191;-59
2024/02/06 09:39:16;;;;;;;;;;;;;;;;;;4967066;28;4898;-58
2024/02/06 09:41:42;;;;;;;;;;;;;;;;;;4968375;28;5307;-59
2024/02/06 09:44:07;;;;;;;;;;;;;;;;;;4951163;28;5111;-59
2024/02/06 09:46:33;;;;;;;;;;;;;;;;;;4953287;28;5310;-58
2024/02/06 09:48:58;;;;;;;;;;;;;;;;;;4965573;28;1367;-61
2024/02/06 09:51:24;;;;;;;;;;;;;;;;;;4950740;28;5036;-61
2024/02/06 09:53:49;;;;;;;;;;;;;;;;;;4963375;28;5137;-60
2024/02/06 09:56:15;;;;;;;;;;;;;;;;;;4963034;28;5145;-60
2024/02/06 09:58:40;;;;;;;;;;;;;;;;;;4968787;28;5101;-60
2024/02/06 10:01:09;;;;;;;;;;;;;;;;;;4945501;28;1151;-59
2024/02/06 10:03:35;;;;;;;;;;;;;;;;;;4946839;28;4974;-58
2024/02/06 10:06:02;;;;;;;;;;;;;;;;;;4953044;28;5455;-60
2024/02/06 10:08:28;;;;;;;;;;;;;;;;;;4951504;28;5193;-59
2024/02/06 10:10:53;;;;;;;;;;;;;;;;;;4966143;28;4527;-59
2024/02/06 10:13:22;;;;;;;;;;;;;;;;;;4964531;28;5183;-60
2024/02/06 10:15:48;;;;;;;;;;;;;;;;;;4968428;28;1442;-59
2024/02/06 10:18:13;;;;;;;;;;;;;;;;;;4949627;28;4526;-59
2024/02/06 10:20:45;;;;;;;;;;;;;;;;;;4962842;28;5173;-58
2024/02/06 10:23:11;;;;;;;;;;;;;;;;;;4961056;28;5136;-59
2024/02/06 10:25:36;;;;;;;;;;;;;;;;;;4967123;28;4912;-60
2024/02/06 10:28:03;;;;;;;;;;;;;;;;;;4962261;28;1223;-58
2024/02/06 10:30:28;;;;;;;;;;;;;;;;;;4968904;28;5053;-59
2024/02/06 10:32:53;;;;;;;;;;;;;;;;;;4969606;28;4934;-59
2024/02/06 10:35:21;;;;;;;;;;;;;;;;;;4969613;28;4781;-59
2024/02/06 10:37:46;;;;;;;;;;;;;;;;;;4968179;28;5151;-59
2024/02/06 10:40:12;;;;;;;;;;;;;;;;;;4967373;28;1186;-58
2024/02/06 10:42:39;;;;;;;;;;;;;;;;;;4967975;28;4450;-58
2024/02/06 10:45:04;;;;;;;;;;;;;;;;;;4969401;28;5183;-58
2024/02/06 10:47:30;;;;;;;;;;;;;;;;;;4968525;28;5078;-58
2024/02/06 10:50:02;;;;;;;;;;;;;;;;;;4961191;28;4539;-58
2024/02/06 10:52:28;;;;;;;;;;;;;;;;;;4955437;28;4792;-58
2024/02/06 10:54:53;;;;;;;;;;;;;;;;;;4945884;28;3417;-58
2024/02/06 10:57:19;;;;;;;;;;;;;;;;;;4958567;28;4959;-58
2024/02/06 10:59:47;;;;;;;;;;;;;;;;;;4967945;28;4517;-58
2024/02/06 11:02:27;;;;;;;;;;;;;;;;;;4963885;28;4992;-59
2024/02/06 11:04:58;;;;;;;;;;;;;;;;;;4964924;28;5389;-58
2024/02/06 11:07:23;;;;;;;;;;;;;;;;;;4966176;28;4555;-58
2024/02/06 11:09:49;;;;;;;;;;;;;;;;;;4952211;28;1175;-58
2024/02/06 11:12:14;;;;;;;;;;;;;;;;;;4943322;28;4499;-58
2024/02/06 11:14:40;;;;;;;;;;;;;;;;;;4967711;28;5165;-60
2024/02/06 11:17:06;;;;;;;;;;;;;;;;;;4938376;28;5109;-58
2024/02/06 11:19:38;;;;;;;;;;;;;;;;;;4955213;28;5247;-58
2024/02/06 11:22:05;;;;;;;;;;;;;;;;;;4945645;28;3506;-59
2024/02/06 11:24:31;;;;;;;;;;;;;;;;;;4965789;28;5146;-58
2024/02/06 11:26:56;;;;;;;;;;;;;;;;;;4964653;28;5176;-58
2024/02/06 11:29:21;;;;;;;;;;;;;;;;;;4968514;28;4511;-58
2024/02/06 11:31:47;;;;;;;;;;;;;;;;;;4967563;28;4517;-58
2024/02/06 11:34:18;;;;;;;;;;;;;;;;;;4968326;28;3412;-58
2024/02/06 11:36:43;;;;;;;;;;;;;;;;;;4967797;28;6157;-60
2024/02/06 11:39:09;;;;;;;;;;;;;;;;;;4964406;28;5055;-60
2024/02/06 11:41:35;;;;;;;;;;;;;;;;;;4956481;28;5322;-59
2024/02/06 11:44:09;;;;;;;;;;;;;;;;;;4948652;28;5053;-59
2024/02/06 11:46:44;;;;;;;;;;;;;;;;;;4965323;28;4636;-59
2024/02/06 11:49:09;;;;;;;;;;;;;;;;;;4967204;28;3345;-59
2024/02/06 11:51:35;;;;;;;;;;;;;;;;;;4966546;28;4497;-59
2024/02/06 11:54:13;;;;;;;;;;;;;;;;;;4961581;28;5142;-59
2024/02/06 11:56:38;;;;;;;;;;;;;;;;;;4963284;28;5053;-59
2024/02/06 11:59:04;;;;;;;;;;;;;;;;;;4962092;28;5099;-59
2024/02/06 12:01:30;;;;;;;;;;;;;;;;;;4966834;28;4488;-59
2024/02/06 12:03:56;;;;;;;;;;;;;;;;;;4963059;28;3560;-59
2024/02/06 12:06:21;;;;;;;;;;;;;;;;;;4963982;28;4666;-58
2024/02/06 12:08:46;;;;;;;;;;;;;;;;;;4964281;28;5238;-59
2024/02/06 12:11:12;;;;;;;;;;;;;;;;;;4961933;28;4965;-59
2024/02/06 12:13:37;;;;;;;;;;;;;;;;;;4963543;28;5205;-59
2024/02/06 12:16:03;;;;;;;;;;;;;;;;;;4966879;28;1612;-59
2024/02/06 12:18:29;;;;;;;;;;;;;;;;;;4967077;28;4451;-59
2024/02/06 12:20:54;;;;;;;;;;;;;;;;;;4943602;28;5889;-58
2024/02/06 12:23:20;;;;;;;;;;;;;;;;;;4962388;28;5040;-59
2024/02/06 12:25:47;;;;;;;;;;;;;;;;;;4945850;28;5057;-59
2024/02/06 12:28:12;;;;;;;;;;;;;;;;;;4966476;28;2266;-59
2024/02/06 12:30:41;;;;;;;;;;;;;;;;;;4959738;28;4835;-59
2024/02/06 12:33:06;;;;;;;;;;;;;;;;;;4968101;28;5088;-59
2024/02/06 12:35:32;;;;;;;;;;;;;;;;;;4957498;28;5202;-59
2024/02/06 12:37:58;;;;;;;;;;;;;;;;;;4965910;28;4646;-59
2024/02/06 12:40:33;;;;;;;;;;;;;;;;;;4964725;28;5259;-59
2024/02/06 12:43:01;;;;;;;;;;;;;;;;;;4961207;28;1260;-59
2024/02/06 12:45:27;;;;;;;;;;;;;;;;;;4947552;28;5260;-60
2024/02/06 12:47:52;;;;;;;;;;;;;;;;;;4966872;28;5072;-59
2024/02/06 12:50:18;;;;;;;;;;;;;;;;;;4960316;28;4731;-59
2024/02/06 12:52:43;;;;;;;;;;;;;;;;;;4942357;28;5056;-59
2024/02/06 12:55:08;;;;;;;;;;;;;;;;;;4963119;28;1147;-59
2024/02/06 12:57:34;;;;;;;;;;;;;;;;;;4945304;28;4620;-58
2024/02/06 13:00:00;;;;;;;;;;;;;;;;;;4939723;28;5087;-59
2024/02/06 13:02:26;;;;;;;;;;;;;;;;;;4950577;28;5072;-59
2024/02/06 13:04:52;;;;;;;;;;;;;;;;;;4968260;28;5140;-59
2024/02/06 13:07:19;;;;;;;;;;;;;;;;;;4969369;28;5568;-59
2024/02/06 13:09:44;;;;;;;;;;;;;;;;;;4971317;28;1134;-58
2024/02/06 13:12:10;;;;;;;;;;;;;;;;;;4969459;28;4510;-58
2024/02/06 13:14:35;;;;;;;;;;;;;;;;;;4960655;28;5048;-59
2024/02/06 13:17:00;;;;;;;;;;;;;;;;;;4968683;28;4549;-58
2024/02/06 13:19:29;;;;;;;;;;;;;;;;;;4965370;28;5051;-58
2024/02/06 13:21:57;;;;;;;;;;;;;;;;;;4952454;28;3410;-58
2024/02/06 13:24:23;;;;;;;;;;;;;;;;;;4969261;28;4444;-59
2024/02/06 13:26:48;;;;;;;;;;;;;;;;;;4969300;28;5137;-59
2024/02/06 13:29:14;;;;;;;;;;;;;;;;;;4969649;28;5040;-59
2024/02/06 13:31:39;;;;;;;;;;;;;;;;;;4971120;28;5126;-59
2024/02/06 13:34:05;;;;;;;;;;;;;;;;;;4973490;28;3511;-59
2024/02/06 13:36:30;;;;;;;;;;;;;;;;;;4964145;28;4936;-58
2024/02/06 13:38:55;;;;;;;;;;;;;;;;;;4970869;28;5397;-59
2024/02/06 13:41:21;;;;;;;;;;;;;;;;;;4970737;28;5165;-59
2024/02/06 13:43:46;;;;;;;;;;;;;;;;;;4969748;28;5582;-59
2024/02/06 13:46:12;;;;;;;;;;;;;;;;;;4970650;28;1349;-59
2024/02/06 13:48:37;;;;;;;;;;;;;;;;;;4969561;28;5043;-60
2024/02/06 13:51:03;;;;;;;;;;;;;;;;;;4971137;28;5001;-59
2024/02/06 13:53:28;;;;;;;;;;;;;;;;;;4969936;28;6431;-59
2024/02/06 13:55:53;;;;;;;;;;;;;;;;;;4965452;28;5071;-59
2024/02/06 13:58:19;;;;;;;;;;;;;;;;;;4967974;28;5187;-60
2024/02/06 14:00:45;;;;;;;;;;;;;;;;;;4968734;28;1099;-59
2024/02/06 14:03:11;;;;;;;;;;;;;;;;;;4967006;28;5178;-60
2024/02/06 14:05:36;;;;;;;;;;;;;;;;;;4956428;28;5222;-59
2024/02/06 14:08:02;;;;;;;;;;;;;;;;;;4961135;28;5748;-59
2024/02/06 14:10:28;;;;;;;;;;;;;;;;;;4965799;28;4670;-59
2024/02/06 14:12:53;;;;;;;;;;;;;;;;;;4968242;28;3459;-59
2024/02/06 14:15:19;;;;;;;;;;;;;;;;;;4963207;28;5216;-59
2024/02/06 14:17:45;;;;;;;;;;;;;;;;;;4944069;28;5044;-60
2024/02/06 14:20:11;;;;;;;;;;;;;;;;;;4962205;28;4581;-59
2024/02/06 14:22:36;;;;;;;;;;;;;;;;;;4965286;28;4916;-59
2024/02/06 14:25:01;;;;;;;;;;;;;;;;;;4954270;28;3384;-59
2024/02/06 14:27:27;;;;;;;;;;;;;;;;;;4964672;28;5245;-59
2024/02/06 14:29:52;;;;;;;;;;;;;;;;;;4963291;28;5048;-59
2024/02/06 14:32:17;;;;;;;;;;;;;;;;;;4966815;28;5240;-60
2024/02/06 14:34:42;;;;;;;;;;;;;;;;;;4968928;28;5162;-59
2024/02/06 14:37:08;;;;;;;;;;;;;;;;;;4958993;28;3422;-59
2024/02/06 14:39:33;;;;;;;;;;;;;;;;;;4966218;28;4776;-59
2024/02/06 14:41:59;;;;;;;;;;;;;;;;;;4963387;28;5464;-59
2024/02/06 14:44:24;;;;;;;;;;;;;;;;;;4969932;28;4668;-59
2024/02/06 14:46:50;;;;;;;;;;;;;;;;;;4965619;28;4633;-59
2024/02/06 14:49:15;;;;;;;;;;;;;;;;;;4944856;28;3397;-59
2024/02/06 14:51:41;;;;;;;;;;;;;;;;;;4951959;28;5370;-60
2024/02/06 14:54:06;;;;;;;;;;;;;;;;;;4958920;28;5041;-60
2024/02/06 14:56:31;;;;;;;;;;;;;;;;;;4943481;28;4502;-59
2024/02/06 14:58:57;;;;;;;;;;;;;;;;;;4962271;28;5107;-60
2024/02/06 15:01:22;;;;;;;;;;;;;;;;;;4953203;28;4908;-59
2024/02/06 15:03:54;;;;;;;;;;;;;;;;;;4959045;28;3558;-60
2024/02/06 15:06:20;;;;;;;;;;;;;;;;;;4964804;28;4881;-60
2024/02/06 15:08:45;;;;;;;;;;;;;;;;;;4963189;28;4670;-60
2024/02/06 15:11:10;;;;;;;;;;;;;;;;;;4945662;28;5580;-60
2024/02/06 15:13:36;;;;;;;;;;;;;;;;;;4960503;28;4657;-59
2024/02/06 15:16:01;;;;;;;;;;;;;;;;;;4956055;28;3476;-60
2024/02/06 15:18:28;;;;;;;;;;;;;;;;;;4962615;28;5100;-60
2024/02/06 15:20:53;;;;;;;;;;;;;;;;;;4968995;28;5033;-59
2024/02/06 15:23:19;;;;;;;;;;;;;;;;;;4964502;28;4765;-59
2024/02/06 15:25:45;;;;;;;;;;;;;;;;;;4941679;28;5007;-59
2024/02/06 15:28:10;;;;;;;;;;;;;;;;;;4965831;28;3330;-60
2024/02/06 15:30:35;;;;;;;;;;;;;;;;;;4965112;28;4966;-59
2024/02/06 15:33:01;;;;;;;;;;;;;;;;;;4962020;28;4549;-60
2024/02/06 15:35:28;;;;;;;;;;;;;;;;;;4965846;28;4931;-59
2024/02/06 15:37:54;;;;;;;;;;;;;;;;;;4964132;28;4566;-70
2024/02/06 15:40:19;;;;;;;;;;;;;;;;;;4943141;28;5053;-69
2024/02/06 15:42:45;;;;;;;;;;;;;;;;;;4957086;28;3468;-69
2024/02/06 15:45:10;;;;;;;;;;;;;;;;;;4962803;28;4718;-69
2024/02/06 15:47:35;;;;;;;;;;;;;;;;;;4966833;28;4668;-69
2024/02/06 15:50:01;;;;;;;;;;;;;;;;;;4967062;28;5229;-71
2024/02/06 15:52:26;;;;;;;;;;;;;;;;;;4959715;28;4757;-70
2024/02/06 15:54:52;;;;;;;;;;;;;;;;;;4965918;28;3824;-70
2024/02/06 15:57:17;;;;;;;;;;;;;;;;;;4945740;28;5048;-71
2024/02/06 15:59:43;;;;;;;;;;;;;;;;;;4958035;28;5124;-71
2024/02/06 16:02:08;;;;;;;;;;;;;;;;;;4963110;28;5345;-71
2024/02/06 16:04:33;;;;;;;;;;;;;;;;;;4956284;28;4943;-71
2024/02/06 16:06:59;;;;;;;;;;;;;;;;;;4950835;28;3586;-71
2024/02/06 16:09:24;;;;;;;;;;;;;;;;;;4958672;28;4885;-73
2024/02/06 16:11:51;;;;;;;;;;;;;;;;;;4953300;28;5138;-70
2024/02/06 16:14:16;;;;;;;;;;;;;;;;;;4961311;28;5204;-68
2024/02/06 16:16:41;;;;;;;;;;;;;;;;;;4960722;28;5128;-70
2024/02/06 16:19:07;;;;;;;;;;;;;;;;;;4962561;28;3306;-71
2024/02/06 16:21:32;;;;;;;;;;;;;;;;;;4958506;28;5005;-71
2024/02/06 16:23:59;;;;;;;;;;;;;;;;;;4963745;28;5097;-70
2024/02/06 16:26:25;;;;;;;;;;;;;;;;;;4956301;28;4491;-70
2024/02/06 16:28:50;;;;;;;;;;;;;;;;;;4965236;28;4472;-69
2024/02/06 16:31:15;;;;;;;;;;;;;;;;;;4963059;28;5172;-69
2024/02/06 16:33:41;;;;;;;;;;;;;;;;;;4962949;28;3669;-69
2024/02/06 16:36:10;;;;;;;;;;;;;;;;;;4960896;28;5164;-73
2024/02/06 16:38:36;;;;;;;;;;;;;;;;;;4965080;28;4632;-71
2024/02/06 16:41:02;;;;;;;;;;;;;;;;;;4966601;28;4646;-57
2024/02/06 16:43:28;;;;;;;;;;;;;;;;;;4961284;28;5210;-60
2024/02/06 16:45:54;;;;;;;;;;;;;;;;;;4965425;28;3435;-56
2024/02/06 16:48:20;;;;;;;;;;;;;;;;;;4964641;28;4528;-56
2024/02/06 16:50:45;;;;;;;;;;;;;;;;;;4956415;28;4924;-56
2024/02/06 16:53:10;;;;;;;;;;;;;;;;;;4963207;28;4590;-56